Diamond Bar Past Weather

Last 30 Days

High: 52ºf @1:55 AM    Low: 49ºf @5:55 AM     Approx. Precipitation / Rain Total: in.
Time (PDT)Temp. (ºf)Humidity (%)Dew Point (ºf)Barometer (inHG)Wind Speed (mph)Wind DirectionWind Gust (mph)1hr. Precip / Rain Total (in.)Snow Depth
5:55 AM499848.46-4.34w9.56--
4:55 AM509849.46-5.21w9.56--
3:55 AM509849.46-4.34wsw6.95--
2:55 AM519549.62-4.34wsw6.95--
1:55 AM529450.33-3.48wsw6.95--
12:55 AM529149.45-2.61w6.95--
High: 64ºf @12:55 PM    Low: 46ºf @12:55 AM     Approx. Precipitation / Rain Total: in.
Time (PDT)Temp. (ºf)Humidity (%)Dew Point (ºf)Barometer (inHG)Wind Speed (mph)Wind DirectionWind Gust (mph)1hr. Precip / Rain Total (in.)Snow Depth
11:55 PM528647.94-3.48w6.95--
10:55 PM538749.23-3.48w8.69--
9:55 PM538548.61-4.34wsw8.69--
8:55 PM548348.95-3.48wsw9.56--
7:55 PM548148.3-5.21sw12.17--
6:55 PM567648.54-6.95wsw12.17--
5:55 PM587048.27-6.95wsw12.17--
4:55 PM616649.56-6.08w13.03--
3:55 PM626349.26-6.08w13.03--
2:55 PM636048.89-6.95w11.3--
1:55 PM635747.52-6.95wsw13.9--
12:55 PM645647.98-6.95wsw13.03--
11:55 AM625947.5-2.61wsw8.69--
10:55 AM616348.31-1.74s6.08--
9:55 AM576746.15-3.48sw6.95--
8:55 AM577248.06-3.48wsw6.08--
7:55 AM539150.44-0.87wsw2.61--
6:55 AM509849.46---2.61--
5:55 AM499748.19-1.74nne2.61--
4:55 AM509648.9---3.48--
3:55 AM509548.62-0.87wnw3.48--
2:55 AM509648.9-1.74wnw4.34--
1:55 AM489947.73---2.61--
12:55 AM469745.2-1.74n3.48--
High: 63ºf @3:55 PM    Low: 48ºf @10:55 PM     Approx. Precipitation / Rain Total: in.
Time (PDT)Temp. (ºf)Humidity (%)Dew Point (ºf)Barometer (inHG)Wind Speed (mph)Wind DirectionWind Gust (mph)1hr. Precip / Rain Total (in.)Snow Depth
11:55 PM489747.19---4.34--
10:55 PM489847.46-1.74wnw4.34--
9:55 PM519148.47-1.74w6.08--
8:55 PM548549.59-2.61w7.82--
7:55 PM548649.91-4.34wnw7.82--
6:55 PM587650.48-4.34w8.69--
5:55 PM607250.94-5.21wsw9.56--
4:55 PM627052.1-4.34wsw12.17--
3:55 PM636852.27-5.21wsw13.9--
2:55 PM636852.27-6.08wsw11.3--
1:55 PM626951.71-3.48w10.43--
12:55 PM617352.28-3.48wsw8.69--
11:55 AM607953.47-4.34wsw7.82--
10:55 AM608053.81-4.34wsw7.82--
9:55 AM588553.51-4.34sw6.95--
8:55 AM559854.44-3.48sw7.82--
7:55 AM539351.03-4.34wsw7.82--
6:55 AM539351.03-4.34w6.08--
5:55 AM539351.03-1.74wsw5.21--
4:55 AM539351.03-3.48wsw6.08--
3:55 AM539351.03-0.87sw5.21--
2:55 AM539451.32-2.61wsw6.08--
1:55 AM549552.6-3.48sw6.95--
12:55 AM559754.16-2.61sw6.08--
High: 73ºf @3:55 PM    Low: 50ºf @5:55 AM     Approx. Precipitation / Rain Total: in.
Time (PDT)Temp. (ºf)Humidity (%)Dew Point (ºf)Barometer (inHG)Wind Speed (mph)Wind DirectionWind Gust (mph)1hr. Precip / Rain Total (in.)Snow Depth
11:55 PM559653.88-1.74wsw4.34--
10:55 PM569654.87-3.48wsw7.82--
9:55 PM569755.16-4.34w8.69--
8:55 PM569755.16-4.34wsw9.56--
7:55 PM579455.29-6.08wsw13.03--
6:55 PM598454.17-6.95w15.64--
5:55 PM666955.53-7.82wsw16.51--
4:55 PM696355.87-8.69wsw15.64--
3:55 PM735957.81-6.95wsw13.03--
2:55 PM735656.36-6.08sw12.17--
1:55 PM725856.4-6.08sw11.3--
12:55 PM706457.25-6.08sw10.43--
11:55 AM687057.84-6.08sw11.3--
10:55 AM657757.61-3.48ssw6.08--
9:55 AM609157.36-3.48sw6.08--
8:55 AM569253.71-0.87e2.61--
7:55 AM539551.61---1.74--
6:55 AM509749.18---1.74--
5:55 AM509749.18---1.74--
4:55 AM509849.46---2.61--
3:55 AM529851.45---3.48--
2:55 AM539852.45-0.87ene1.74--
1:55 AM559754.16---2.61--
12:55 AM539852.45---2.61--
High: 81ºf @3:55 PM    Low: 52ºf @4:55 AM     Approx. Precipitation / Rain Total: in.
Time (PDT)Temp. (ºf)Humidity (%)Dew Point (ºf)Barometer (inHG)Wind Speed (mph)Wind DirectionWind Gust (mph)1hr. Precip / Rain Total (in.)Snow Depth
11:55 PM549853.45---1.74--
10:55 PM549652.88---2.61--
9:55 PM569654.87-1.74sw5.21--
8:55 PM588854.46-4.34wsw7.82--
7:55 PM627654.34-4.34w11.3--
6:55 PM706055.46-3.48wsw12.17--
5:55 PM755155.63-6.95wsw12.17--
4:55 PM804657.34-6.08wsw12.17--
3:55 PM814457.01-6.95wsw13.03--
2:55 PM814356.37-6.95wsw13.03--
1:55 PM814356.37-6.08sw11.3--
12:55 PM784655.52-6.08sw9.56--
11:55 AM764955.44-6.08sw9.56--
10:55 AM745556.79-3.48ssw6.08--
9:55 AM706356.81-1.74sw4.34--
8:55 AM677056.88-0.87ssw2.61--
7:55 AM637755.67---3.48--
6:55 AM539651.89-2.61nne4.34--
5:55 AM529751.17-0.87ne3.48--
4:55 AM529751.17-1.74nne3.48--
3:55 AM529751.17-0.87ne3.48--
2:55 AM529851.45-0.87nne2.61--
1:55 AM529751.17---1.74--
12:55 AM559152.42---3.48--
High: 71ºf @4:55 PM    Low: 47ºf @12:55 AM     Approx. Precipitation / Rain Total: in.
Time (PDT)Temp. (ºf)Humidity (%)Dew Point (ºf)Barometer (inHG)Wind Speed (mph)Wind DirectionWind Gust (mph)1hr. Precip / Rain Total (in.)Snow Depth
11:55 PM578652.85---5.21--
10:55 PM539752.17-1.74nne2.61--
9:55 PM549652.88-0.87nne4.34--
8:55 PM578452.21-3.48w5.21--
7:55 PM617553.02-1.74w7.82--
6:55 PM686254.48-4.34w7.82--
5:55 PM715654.5-3.48wsw9.56--
4:55 PM715554.01-4.34sw9.56--
3:55 PM715754.99-5.21sw10.43--
2:55 PM715654.5-4.34wsw9.56--
1:55 PM696054.53-2.61s6.95--
12:55 PM656854.17-2.61s6.95--
11:55 AM627252.87-2.61sse5.21--
10:55 AM588252.53-0.87ssw4.34--
9:55 AM559252.72-2.61wsw3.48--
8:55 AM539752.17---2.61--
7:55 AM529851.45-0.87wsw3.48--
6:55 AM529851.45-0.87w2.61--
5:55 AM529851.45---2.61--
4:55 AM519750.18---5.21--
3:55 AM509749.18-1.74n4.34--
2:55 AM499848.46-1.74n4.34--
1:55 AM489847.46-0.87nw3.48--
12:55 AM479846.46-2.61n3.48--
High: 70ºf @4:55 PM    Low: 48ºf @11:55 PM     Approx. Precipitation / Rain Total: in.
Time (PDT)Temp. (ºf)Humidity (%)Dew Point (ºf)Barometer (inHG)Wind Speed (mph)Wind DirectionWind Gust (mph)1hr. Precip / Rain Total (in.)Snow Depth
11:55 PM489847.46-2.61nnw4.34--
10:55 PM509548.62-1.74n5.21--
9:55 PM539451.32-3.48w7.82--
8:55 PM558851.51-2.61wsw10.43--
7:55 PM578251.56-4.34w11.3--
6:55 PM636551.04-6.08w12.17--
5:55 PM685651.71-6.08wsw13.03--
4:55 PM704949.95-5.21sw10.43--
3:55 PM695250.63-4.34w12.17--
2:55 PM685551.22-5.21wsw10.43--
1:55 PM656151.22-4.34sw11.3--
12:55 PM626650.51-5.21ssw11.3--
11:55 AM626951.71-3.48sw9.56--
10:55 AM597551.08-3.48ssw6.08--
9:55 AM568651.87-1.74sse5.21--
8:55 AM549352.02-0.87ne4.34--
7:55 AM529550.61-2.61nnw5.21--
6:55 AM509849.46-3.48n5.21--
5:55 AM509849.46-2.61n4.34--
4:55 AM509849.46-1.74nnw4.34--
3:55 AM489947.73-2.61nnw5.21--
2:55 AM489747.19-1.74n3.48--
1:55 AM499848.46-2.61nnw4.34--
12:55 AM499547.63-1.74n3.48--
High: 76ºf @3:55 PM    Low: ºf @6:55 AM     Approx. Precipitation / Rain Total: in.
Time (PDT)Temp. (ºf)Humidity (%)Dew Point (ºf)Barometer (inHG)Wind Speed (mph)Wind DirectionWind Gust (mph)1hr. Precip / Rain Total (in.)Snow Depth
11:55 PM489747.19-0.87nnw3.48--
10:55 PM499246.78-3.48n5.21--
9:55 PM538949.84-2.61w6.95--
8:55 PM568350.91-2.61wsw9.56--
7:55 PM607250.94-5.21w10.43--
6:55 PM675952.19-3.48wsw14.77--
5:55 PM724851.22-6.08wsw13.03--
4:55 PM754149.69-5.21wsw10.43--
3:55 PM764251.23-4.34w12.17--
2:55 PM754149.69-7.82wsw13.9--
1:55 PM753646.22-7.82wsw12.17--
12:55 PM753142.3-5.21ssw10.43--
11:55 AM724549.48-2.61ese6.95--
10:55 AM695552.15-1.74sse5.21--
9:55 AM646752.82-1.74ese6.08--
8:55 AM597952.49-0.87ene3.48--
7:55 AM548950.83-0.87ssw3.48--
6:55 AM----1.74----
5:55 AM547144.81-2.61nne5.21--
4:55 AM527544.32-3.48-5.21--
3:55 AM556744.25-1.74nne5.21--
2:55 AM556543.45-3.48nne6.08--
1:55 AM556945.02-2.61nne4.34--
12:55 AM557145.77-2.61nne5.21--
High: 79ºf @2:55 PM    Low: 51ºf @5:55 AM     Approx. Precipitation / Rain Total: in.
Time (PDT)Temp. (ºf)Humidity (%)Dew Point (ºf)Barometer (inHG)Wind Speed (mph)Wind DirectionWind Gust (mph)1hr. Precip / Rain Total (in.)Snow Depth
11:55 PM557246.14-3.48n5.21--
9:55 PM577147.69-0.87ne4.34--
8:55 PM576746.15-3.48nnw5.21--
7:55 PM644944.45-0.87nw8.69--
6:55 PM694345.56-4.34w11.3--
5:55 PM743947.46-6.95w14.77--
4:55 PM763949.24-7.82wsw13.9--
3:55 PM782943.15-7.82w12.17--
2:55 PM792944.01-6.95w13.03--
1:55 PM783044.03-6.08wsw13.03--
12:55 PM773446.46-4.34sw9.56--
11:55 AM753545.47-2.61sw6.95--
10:55 AM723542.84-3.48sw6.95--
9:55 AM704346.46-2.61ssw5.21--
8:55 AM674947.2-1.74sw3.48--
7:55 AM635948.44-0.87ne4.34--
6:55 AM517944.72-2.61nne3.48--
5:55 AM518045.05-1.74ne4.34--
4:55 AM527845.36-1.74ne3.48--
3:55 AM527945.69-2.61nne5.21--
2:55 AM537645.64-2.61nne5.21--
1:55 AM547546.26-2.61nne5.21--
12:55 AM557647.57-1.74nne5.21--
High: 79ºf @4:55 PM    Low: 47ºf @4:55 AM     Approx. Precipitation / Rain Total: in.
Time (PDT)Temp. (ºf)Humidity (%)Dew Point (ºf)Barometer (inHG)Wind Speed (mph)Wind DirectionWind Gust (mph)1hr. Precip / Rain Total (in.)Snow Depth
11:55 PM577047.31-2.61ne4.34--
10:55 PM587048.27-1.74nne4.34--
9:55 PM586646.7-0.87ne5.21--
8:55 PM615444.23-0.87n8.69--
7:55 PM644743.36-5.21w10.43--
6:55 PM704245.84-4.34wsw13.03--
5:55 PM753646.22-7.82wsw16.51--
4:55 PM793044.9-7.82w16.51--
3:55 PM792641.17-7.82wsw14.77--
2:55 PM792540.15-6.95w13.03--
1:55 PM772841.38-4.34sw13.03--
12:55 PM753243.12-5.21sw10.43--
11:55 AM733543.72-4.34sw8.69--
10:55 AM714045.45-1.74s4.34--
9:55 AM675047.74-1.74s6.08--
8:55 AM645145.5-1.74ssw4.34--
7:55 AM586144.63-1.74n4.34--
6:55 AM487440.11-2.61ne5.21--
5:55 AM478041.16-2.61ne5.21--
4:55 AM477840.5-2.61ne5.21--
3:55 AM478542.73-1.74nne4.34--
2:55 AM498745.3-1.74ne5.21--
1:55 AM508345.04-1.74ene4.34--
12:55 AM508545.67-1.74nne4.34--
High: 67ºf @5:55 PM    Low: 42ºf @5:55 AM     Approx. Precipitation / Rain Total: in.
Time (PDT)Temp. (ºf)Humidity (%)Dew Point (ºf)Barometer (inHG)Wind Speed (mph)Wind DirectionWind Gust (mph)1hr. Precip / Rain Total (in.)Snow Depth
11:55 PM517844.38-1.74ne5.21--
10:55 PM518346.02-1.74ne5.21--
9:55 PM509047.18-2.61nne5.21--
8:55 PM518947.87-2.61n5.21--
7:55 PM577448.79---9.56--
6:55 PM635747.52-4.34w8.69--
5:55 PM674846.65-3.48wsw10.43--
4:55 PM664443.46-5.21wsw13.03--
3:55 PM664745.18-5.21w11.3--
2:55 PM655045.9-3.48s8.69--
1:55 PM625344.67-4.34ssw11.3--
12:55 PM615745.65-3.48sw11.3--
11:55 AM586044.19-2.61ssw10.43--
10:55 AM546944.06-1.74s5.21--
9:55 AM547546.26-0.87sse5.21--
8:55 AM538047-0.87s4.34--
7:55 AM489747.19---2.61--
6:55 AM449943.74-2.61nne5.21--
5:55 AM429841.48-2.61nne5.21--
4:55 AM439942.74-1.74ne3.48--
3:55 AM439942.74-2.61nne4.34--
2:55 AM459944.74-1.74n4.34--
1:55 AM469945.73-1.74ne5.21--
12:55 AM459944.74-0.87nnw4.34--
High: 53ºf @10:55 AM    Low: 38ºf @5:55 AM     Approx. Precipitation / Rain Total: in.
Time (PDT)Temp. (ºf)Humidity (%)Dew Point (ºf)Barometer (inHG)Wind Speed (mph)Wind DirectionWind Gust (mph)1hr. Precip / Rain Total (in.)Snow Depth
11:55 PM459944.74-3.48n5.21--
10:55 PM479946.73-0.87sse4.34--
9:55 PM489847.46-4.34w6.95--
8:55 PM489847.46-3.48wnw7.82--
7:55 PM489847.46-2.61wsw6.08--
6:55 PM499848.46-2.61sw6.95--
5:55 PM489947.73-3.48wnw10.43--
4:55 PM499748.19-3.48wnw6.95--
3:55 PM509849.46-3.48wnw6.08--
2:55 PM499848.46-3.48wnw6.08--
1:55 PM509749.18-3.48wsw9.56--
12:55 PM528748.25-1.74ssw8.69--
11:55 AM518546.65-5.21wnw8.69--
10:55 AM537143.85-2.61wsw6.95--
9:55 AM527544.32-0.87sse5.21--
8:55 AM488543.71-1.74e6.08--
7:55 AM468942.94-1.74ese4.34--
6:55 AM399938.74-1.74ene3.48--
5:55 AM3810038-0.87nne4.34--
4:55 AM3910039-2.61nne4.34--
3:55 AM409939.74-3.48n4.34--
2:55 AM449943.74-1.74wnw6.95--
1:55 AM449943.74-2.61wsw4.34--
12:55 AM449943.74-1.74ssw5.21--
High: 60ºf @11:55 AM    Low: 45ºf @11:55 PM     Approx. Precipitation / Rain Total: in.
Time (PDT)Temp. (ºf)Humidity (%)Dew Point (ºf)Barometer (inHG)Wind Speed (mph)Wind DirectionWind Gust (mph)1hr. Precip / Rain Total (in.)Snow Depth
11:55 PM459944.74-3.48wsw10.43--
10:55 PM469945.73-1.74wsw8.69--
9:55 PM478743.33-4.34nnw13.9--
8:55 PM469644.92-7.82wnw14.77--
7:55 PM469945.73-8.69w19.99--
6:55 PM509849.46-3.48sw13.9--
5:55 PM538648.92-3.48nnw10.43--
4:55 PM557246.14-6.95sw13.03--
3:55 PM566644.8-1.74ssw11.3--
2:55 PM595442.38-4.34w10.43--
1:55 PM604940.78-1.74nnw7.82--
12:55 PM604840.25-2.61sse6.95--
11:55 AM604840.25-2.61s6.95--
10:55 AM575641.46-0.87ese6.95--
9:55 AM575741.92-2.61e7.82--
8:55 AM546944.06-0.87e3.48--
7:55 AM527343.62-0.87se3.48--
6:55 AM508244.72-1.74nne5.21--
5:55 AM508545.67-2.61n3.48--
4:55 AM498945.9---3.48--
3:55 AM489346.07-2.61n3.48--
2:55 AM508846.59-2.61nw6.08--
1:55 AM518947.87-3.48w6.08--
12:55 AM528848.56-3.48w6.08--
High: 59ºf @2:55 PM    Low: 50ºf @5:55 AM     Approx. Precipitation / Rain Total: in.
Time (PDT)Temp. (ºf)Humidity (%)Dew Point (ºf)Barometer (inHG)Wind Speed (mph)Wind DirectionWind Gust (mph)1hr. Precip / Rain Total (in.)Snow Depth
11:55 PM528647.94-3.48w5.21--
10:55 PM538949.84-2.61wsw5.21--
9:55 PM538849.54-2.61wnw4.34--
8:55 PM538849.54-2.61wsw6.08--
7:55 PM548750.22-3.48wsw8.69--
6:55 PM548750.22-3.48wsw10.43--
5:55 PM568150.25-5.21wsw11.3--
4:55 PM568250.58-6.08w10.43--
3:55 PM568250.58-5.21wsw11.3--
2:55 PM597350.36-6.95wsw13.03--
1:55 PM568451.23-4.34wsw8.69--
12:55 PM568451.23-4.34sw10.43--
11:55 AM568651.87-6.08wsw10.43--
10:55 AM568852.49-5.21wsw9.56--
9:55 AM539651.89-4.34wsw10.43--
8:55 AM558650.89-6.08wsw9.56--
7:55 AM558650.89---4.34--
6:55 AM508345.04---3.48--
5:55 AM508545.67-0.87nw4.34--
4:55 AM527042.52-1.74nne4.34--
3:55 AM517342.65-0.87ne2.61--
2:55 AM537143.85-1.74nne4.34--
1:55 AM566544.4-1.74nne5.21--
12:55 AM576344.53-0.87ne5.21--
High: 86ºf @2:55 PM    Low: 54ºf @5:55 AM     Approx. Precipitation / Rain Total: in.
Time (PDT)Temp. (ºf)Humidity (%)Dew Point (ºf)Barometer (inHG)Wind Speed (mph)Wind DirectionWind Gust (mph)1hr. Precip / Rain Total (in.)Snow Depth
11:55 PM566243.17-4.34nne6.08--
10:55 PM586445.89-1.74nne4.34--
9:55 PM586445.89-1.74n5.21--
8:55 PM655347.45-1.74s6.08--
7:55 PM674746.1-4.34wsw6.95--
3:55 PM852949.15-8.69w13.9--
2:55 PM862040.23-6.95w13.03--
1:55 PM851938.1-5.21wsw10.43--
12:55 PM841937.28-3.48sw7.82--
10:55 AM802541-2.61ssw6.95--
8:55 AM762840.53---3.48--
7:55 AM635245.09-2.61n4.34--
6:55 AM555940.94-1.74ne5.21--
5:55 AM546341.69-1.74ne4.34--
4:55 AM556342.64-2.61ne6.08--
3:55 AM556242.22-1.74nne4.34--
2:55 AM556141.8-1.74ne4.34--
1:55 AM565941.88-0.87n3.48--
12:55 AM575641.46-1.74nne4.34--
High: 82ºf @4:55 PM    Low: 51ºf @3:55 AM     Approx. Precipitation / Rain Total: in.
Time (PDT)Temp. (ºf)Humidity (%)Dew Point (ºf)Barometer (inHG)Wind Speed (mph)Wind DirectionWind Gust (mph)1hr. Precip / Rain Total (in.)Snow Depth
11:55 PM595341.89-1.74ne5.21--
10:55 PM595140.9-3.48nne6.08--
9:55 PM585340.96-3.48n5.21--
8:55 PM635044.06-0.87ne4.34--
7:55 PM683942.11-0.87sw8.69--
6:55 PM743040.59-6.95w13.03--
5:55 PM792742.14-8.69w13.03--
4:55 PM822036.95-8.69w13.9--
3:55 PM821732.87-6.95wsw13.03--
2:55 PM821834.3-6.95w13.03--
1:55 PM801832.67-6.08wsw12.17--
12:55 PM791933.21-6.08wsw13.03--
11:55 AM782033.67-3.48ssw7.82--
10:55 AM761829.43-2.61ssw5.21--
9:55 AM742232.73-0.87se6.08--
8:55 AM712533.4-1.74ese4.34--
7:55 AM604739.71-0.87n5.21--
6:55 AM534733.32-3.48ene5.21--
5:55 AM524832.92-2.61nne5.21--
4:55 AM524732.4-1.74nne6.08--
3:55 AM515033.02-3.48nne6.08--
2:55 AM524933.44-2.61nne5.21--
1:55 AM544533.14-2.61ne6.08--
12:55 AM544533.14-1.74nne6.08--
High: 79ºf @4:55 PM    Low: 50ºf @6:55 AM     Approx. Precipitation / Rain Total: in.
Time (PDT)Temp. (ºf)Humidity (%)Dew Point (ºf)Barometer (inHG)Wind Speed (mph)Wind DirectionWind Gust (mph)1hr. Precip / Rain Total (in.)Snow Depth
11:55 PM573932.29-0.87ne6.08--
10:55 PM574133.54-1.74nne6.95--
9:55 PM564434.4-0.87ne5.21--
8:55 PM593833.43-5.21n6.95--
7:55 PM623433.31-1.74nnw6.95--
6:55 PM692329.66-5.21w12.17--
5:55 PM751828.61-7.82w14.77--
4:55 PM791527.4-5.21w12.17--
3:55 PM781424.94-6.08sw10.43--
2:55 PM771525.81-5.21wsw12.17--
1:55 PM761525.01-3.48ssw11.3--
12:55 PM751625.76-4.34wsw12.17--
11:55 AM721521.83-4.34sw8.69--
10:55 AM711723.99-4.34sw9.56--
9:55 AM701520.23-4.34sw6.95--
8:55 AM691823.73-0.87nne4.34--
7:55 AM622323.78-3.48e7.82--
6:55 AM504127.24-5.21n6.95--
5:55 AM513826.3-3.48nne6.08--
4:55 AM513826.3-3.48nne7.82--
3:55 AM523424.51-3.48nne7.82--
2:55 AM503926.03-3.48ne6.08--
1:55 AM513826.3-3.48nne7.82--
12:55 AM504529.5-3.48nne7.82--
High: 70ºf @4:55 PM    Low: 40ºf @6:55 AM     Approx. Precipitation / Rain Total: in.
Time (PDT)Temp. (ºf)Humidity (%)Dew Point (ºf)Barometer (inHG)Wind Speed (mph)Wind DirectionWind Gust (mph)1hr. Precip / Rain Total (in.)Snow Depth
11:55 PM505032.1-1.74ne5.21--
10:55 PM524732.4-2.61n7.82--
9:55 PM515033.02-4.34n7.82--
8:55 PM554433.49-2.61ene6.95--
7:55 PM564836.59-3.48nne6.95--
6:55 PM643334.32-3.48wsw11.3--
5:55 PM693540.2-5.21wsw12.17--
4:55 PM703037.13-6.08wsw11.3--
3:55 PM703137.97-4.34sw12.17--
2:55 PM693338.69-5.21wsw13.9--
1:55 PM663638.28-6.08wsw11.3--
12:55 PM644139.82-4.34sw9.56--
11:55 AM595643.32-4.34wsw8.69--
10:55 AM576244.11-3.48sw8.69--
9:55 AM546944.06-4.34ssw7.82--
8:55 AM517342.65-3.48sw7.82--
7:55 AM478442.42-0.87se3.48--
6:55 AM409438.41-0.87ne5.21--
5:55 AM409438.41-1.74ne4.34--
4:55 AM409338.14-2.61nne4.34--
3:55 AM418837.72-1.74ene6.95--
2:55 AM428537.82-2.61nne5.21--
1:55 AM418637.14-3.48n5.21--
12:55 AM428738.42-2.61nne4.34--
High: 66ºf @3:55 PM    Low: 40ºf @3:55 AM     Approx. Precipitation / Rain Total: in.
Time (PDT)Temp. (ºf)Humidity (%)Dew Point (ºf)Barometer (inHG)Wind Speed (mph)Wind DirectionWind Gust (mph)1hr. Precip / Rain Total (in.)Snow Depth
11:55 PM428738.42-3.48n4.34--
10:55 PM467939.86-1.74ene4.34--
9:55 PM477740.17-2.61nnw6.95--
8:55 PM507040.61-5.21w9.56--
7:55 PM516740.43-5.21wnw12.17--
6:55 PM575038.55-6.08w13.03--
5:55 PM604136.23-6.95wsw13.03--
4:55 PM633434.19-6.95sw13.9--
3:55 PM662327.14-5.21wsw13.03--
2:55 PM642224.4-4.34sw12.17--
1:55 PM642830.24-5.21sw12.17--
12:55 PM632627.58-4.34sw10.43--
11:55 AM613633.86-5.21wsw9.56--
10:55 AM584637.34-3.48sw7.82--
9:55 AM565037.63-2.61ssw4.34--
8:55 AM555338.19-0.87s4.34--
7:55 AM476435.46-0.87n2.61--
6:55 AM407532.73-0.87ne4.34--
5:55 AM407733.38-1.74ne3.48--
4:55 AM407733.38-1.74ne3.48--
3:55 AM407833.7-1.74ne3.48--
2:55 AM407733.38-0.87ne4.34--
1:55 AM417734.35-2.61nne5.21--
12:55 AM428036.29-2.61nne4.34--
High: 63ºf @3:55 PM    Low: 36ºf @5:55 AM     Approx. Precipitation / Rain Total: in.
Time (PDT)Temp. (ºf)Humidity (%)Dew Point (ºf)Barometer (inHG)Wind Speed (mph)Wind DirectionWind Gust (mph)1hr. Precip / Rain Total (in.)Snow Depth
11:55 PM427735.32-1.74nne6.08--
10:55 PM447335.91-1.74nne4.34--
9:55 PM457336.87-2.61nne5.21--
8:55 PM476937.36-0.87nne7.82--
7:55 PM496336.96-4.34w9.56--
6:55 PM554936.19-5.21w12.17--
5:55 PM604035.61-8.69w13.03--
4:55 PM623131.02-5.21sw13.03--
3:55 PM632930.24-5.21sw10.43--
2:55 PM622929.38-3.48wsw9.56--
1:55 PM603431.55-4.34sw12.17--
12:55 PM584134.43-1.74ene6.95--
11:55 AM564635.51-3.48ese7.82--
10:55 AM554835.67-2.61ese7.82--
9:55 AM525737.24-3.48e6.95--
8:55 AM496537.75-2.61e7.82--
7:55 AM456835.08-1.74e5.21--
6:55 AM378432.62-1.74ne3.48--
5:55 AM369334.18-2.61nne5.21--
4:55 AM378934.06-1.74nne4.34--
3:55 AM398334.28-1.74ne6.08--
2:55 AM389235.89-2.61ne4.34--
1:55 AM389436.43-1.74ene5.21--
12:55 AM389636.96-1.74ne4.34--
High: 53ºf @3:55 PM    Low: 38ºf @9:55 PM     Approx. Precipitation / Rain Total: in.
Time (PDT)Temp. (ºf)Humidity (%)Dew Point (ºf)Barometer (inHG)Wind Speed (mph)Wind DirectionWind Gust (mph)1hr. Precip / Rain Total (in.)Snow Depth
11:55 PM399537.69-2.61ene5.21--
10:55 PM399838.48-1.74n5.21--
9:55 PM389636.96-2.61ne6.08--
8:55 PM419238.86-2.61nnw11.3--
7:55 PM457437.22-7.82wsw13.9--
6:55 PM476836.99-8.69wsw20.86--
5:55 PM486336.01-10.43wsw20.86--
4:55 PM506036.67-6.95sw18.25--
3:55 PM535235.85-10.43wsw19.99--
2:55 PM526942.15-5.21wsw16.51--
1:55 PM486837.95-7.82wnw15.64--
12:55 PM516941.19-4.34sw11.3--
11:55 AM497742.11-3.48ssw8.69--
10:55 AM458841.66-1.74s5.21--
9:55 AM439140.56-0.87ssw4.34--
8:55 AM429239.85-1.74s5.21--
7:55 AM429440.4-1.74sw4.34--
6:55 AM399838.48-0.87nnw6.95--
5:55 AM399637.96-2.61nw11.3--
4:55 AM409638.95---5.21--
3:55 AM399437.42-4.34n14.77--
2:55 AM398936.04-1.74n3.48--
1:55 AM418436.54-1.74nw6.08--
12:55 AM427534.66-4.34w11.3--
High: 58ºf @11:55 AM    Low: 43ºf @11:55 PM     Approx. Precipitation / Rain Total: in.
Time (PDT)Temp. (ºf)Humidity (%)Dew Point (ºf)Barometer (inHG)Wind Speed (mph)Wind DirectionWind Gust (mph)1hr. Precip / Rain Total (in.)Snow Depth
11:55 PM436933.54-6.08nw9.56--
10:55 PM447636.93-6.08wnw10.43--
9:55 PM447837.59-6.08wnw10.43--
8:55 PM458540.77-6.95w13.9--
7:55 PM478843.63-6.95w17.38--
6:55 PM507542.39-6.95w14.77--
5:55 PM518546.65-6.95wsw13.03--
4:55 PM557246.14-4.34sw10.43--
3:55 PM538047-5.21sw12.17--
2:55 PM566444-5.21sw11.3--
1:55 PM566444-3.48sw9.56--
12:55 PM567146.73-4.34sw9.56--
11:55 AM585943.75-2.61sw6.95--
10:55 AM557346.5-2.61ssw6.95--
9:55 AM519048.17-1.74ssw5.21--
8:55 AM519048.17-0.87s6.08--
7:55 AM509348.06-2.61wsw4.34--
6:55 AM509548.62---5.21--
5:55 AM509749.18-2.61nw5.21--
4:55 AM499848.46-1.74wnw8.69--
3:55 AM479946.73-3.48w7.82--
2:55 AM479345.08---4.34--
1:55 AM498645-1.74nne3.48--
12:55 AM498745.3-1.74n5.21--
High: 76ºf @2:55 PM    Low: 48ºf @11:55 PM     Approx. Precipitation / Rain Total: in.
Time (PDT)Temp. (ºf)Humidity (%)Dew Point (ºf)Barometer (inHG)Wind Speed (mph)Wind DirectionWind Gust (mph)1hr. Precip / Rain Total (in.)Snow Depth
11:55 PM489245.79-2.61n4.34--
10:55 PM518446.34-1.74nne5.21--
9:55 PM528046.02-0.87nnw5.21--
8:55 PM576846.54-1.74ne7.82--
7:55 PM605945.63-6.08w11.3--
6:55 PM654643.71-7.82w13.03--
5:55 PM723744.29-8.69w14.77--
4:55 PM743343.06-8.69w14.77--
3:55 PM753847.65-6.95sw15.64--
2:55 PM763344.8-6.95wsw16.51--
1:55 PM753343.93-6.95wsw13.03--
12:55 PM743242.26-4.34sw9.56--
11:55 AM733039.72-3.48sw6.95--
10:55 AM723038.86-1.74sse6.08--
9:55 AM703339.56-1.74se6.95--
8:55 AM683640.04-1.74ese5.21--
7:55 AM566343.58-1.74n4.34--
6:55 AM506940.24-1.74nne5.21--
5:55 AM507040.61-0.87nne4.34--
4:55 AM507140.97-0.87nne5.21--
3:55 AM497340.73-2.61n6.08--
2:55 AM516840.81-2.61nne4.34--
1:55 AM516640.05-0.87nne4.34--
12:55 AM536240.33-2.61nne5.21--
High: 75ºf @3:55 PM    Low: 45ºf @3:55 AM     Approx. Precipitation / Rain Total: in.
Time (PDT)Temp. (ºf)Humidity (%)Dew Point (ºf)Barometer (inHG)Wind Speed (mph)Wind DirectionWind Gust (mph)1hr. Precip / Rain Total (in.)Snow Depth
11:55 PM526440.2-2.61nne6.08--
10:55 PM546140.86-2.61nne6.08--
9:55 PM556242.22-2.61n6.08--
8:55 PM614338.34-3.48nw7.82--
7:55 PM624037.4-5.21nw9.56--
6:55 PM663235.29-6.08w13.9--
5:55 PM732837.96-7.82w13.9--
4:55 PM742838.81-7.82w14.77--
3:55 PM752637.78-7.82w14.77--
2:55 PM752839.67-6.08w12.17--
1:55 PM743040.59-5.21wsw11.3--
12:55 PM722937.99-4.34wsw11.3--
11:55 AM703541.08-3.48wsw7.82--
10:55 AM683841.44-3.48sw7.82--
9:55 AM654241.34-1.74sw5.21--
8:55 AM595743.79-2.61ssw5.21--
7:55 AM536742.34-2.61n5.21--
6:55 AM467839.53-2.61nne5.21--
5:55 AM467939.86-2.61ne5.21--
4:55 AM468040.18-2.61ne5.21--
3:55 AM458039.21-0.87nne4.34--
2:55 AM468040.18-2.61nne5.21--
1:55 AM467939.86-1.74nne5.21--
12:55 AM478041.16-1.74ne5.21--
High: 67ºf @1:55 PM    Low: 41ºf @6:55 AM     Approx. Precipitation / Rain Total: in.
Time (PDT)Temp. (ºf)Humidity (%)Dew Point (ºf)Barometer (inHG)Wind Speed (mph)Wind DirectionWind Gust (mph)1hr. Precip / Rain Total (in.)Snow Depth
11:55 PM478643.03-2.61nne5.21--
10:55 PM488543.71-1.74nne5.21--
9:55 PM498243.75-3.48n6.08--
8:55 PM537143.85-0.87wsw6.95--
7:55 PM556443.05-5.21w11.3--
6:55 PM595743.79-6.95w13.9--
5:55 PM644743.36-8.69w16.51--
4:55 PM674544.95-6.08wsw14.77--
3:55 PM654543.14-4.34w10.43--
2:55 PM664644.62-3.48w12.17--
1:55 PM674243.14-4.34ssw10.43--
12:55 PM644341.05-4.34ssw9.56--
11:55 AM624741.54-3.48s9.56--
10:55 AM605141.82-2.61wsw7.82--
9:55 AM575540.99-1.74sw5.21--
8:55 AM546542.5-1.74ssw3.48--
7:55 AM488242.77---5.21--
6:55 AM419439.41-2.61nne4.34--
5:55 AM429239.85-1.74ne4.34--
4:55 AM429039.28-2.61nne5.21--
3:55 AM439040.27-2.61nne5.21--
2:55 AM439240.84-2.61nne4.34--
1:55 AM459042.25---3.48--
12:55 AM468842.65-0.87ne2.61--
High: 50ºf @6:55 PM    Low: 43ºf @10:55 PM     Approx. Precipitation / Rain Total: in.
Time (PDT)Temp. (ºf)Humidity (%)Dew Point (ºf)Barometer (inHG)Wind Speed (mph)Wind DirectionWind Gust (mph)1hr. Precip / Rain Total (in.)Snow Depth
11:55 PM449241.83-1.74nne5.21--
10:55 PM439240.84-0.87nne4.34--
9:55 PM439341.12-1.74n4.34--
8:55 PM469243.81-0.87nne3.48--
7:55 PM488644.01---5.21--
6:55 PM507642.74-0.87ene3.48--
Past Weather Disclaimer Note regarding "Approx. Precipitation / Rain Total"

Currently

Overcast 55°F
30.08in
Barometer
88%
Humidity
Southwest 6.9mph
Wind
Overcast

Past Weather Nearby

More Local Information

Bookmark and Share